Time;durP1;ratioP1;P1;durP2;ratioP2;P2;SDS_P1;SDS_P2;PMS_P1;PMS_P2;Temp;Humidity;BMP_temperature;BMP_pressure;BME280_temperature;BME280_humidity;BME280_pressure;Samples;Min_cycle;Max_cycle;Signal;HPM_P1;HPM_P2
2023/09/11 00:00:35;;;;;;;25.48;17.92;;;18.20;99.90;;;;;;4928239;29;20042;-82
2023/09/11 00:03:01;;;;;;;28.85;19.88;;;18.20;99.90;;;;;;4928664;29;20086;-81
2023/09/11 00:05:27;;;;;;;30.17;20.40;;;18.10;99.90;;;;;;4913269;29;20495;-82
2023/09/11 00:07:52;;;;;;;30.85;19.05;;;18.10;99.90;;;;;;4910506;29;20048;-81
2023/09/11 00:10:18;;;;;;;27.85;20.10;;;18.10;99.90;;;;;;4918053;29;20036;-81
2023/09/11 00:12:43;;;;;;;34.72;21.55;;;18.10;99.90;;;;;;4928833;29;20401;-82
2023/09/11 00:15:09;;;;;;;32.95;21.42;;;18.00;99.90;;;;;;4928735;29;20114;-81
2023/09/11 00:17:35;;;;;;;31.25;21.15;;;18.00;99.90;;;;;;4928465;29;20091;-81
2023/09/11 00:20:00;;;;;;;30.02;19.83;;;18.00;99.90;;;;;;4928772;29;20633;-81
2023/09/11 00:22:26;;;;;;;30.55;20.90;;;18.00;99.90;;;;;;4928537;29;20047;-82
2023/09/11 00:24:51;;;;;;;31.10;20.45;;;18.00;99.90;;;;;;4931987;29;20031;-81
2023/09/11 00:27:17;;;;;;;30.42;20.30;;;18.00;99.90;;;;;;4928016;29;20032;-81
2023/09/11 00:29:43;;;;;;;28.45;19.17;;;18.00;99.90;;;;;;4928449;29;20028;-81
2023/09/11 00:32:08;;;;;;;29.63;17.92;;;17.90;99.90;;;;;;4919807;29;20028;-81
2023/09/11 00:34:34;;;;;;;29.20;18.05;;;17.90;99.90;;;;;;4913323;29;20545;-82
2023/09/11 00:36:59;;;;;;;24.98;16.92;;;17.90;99.90;;;;;;4927085;29;20179;-81
2023/09/11 00:39:25;;;;;;;24.63;17.15;;;17.80;99.90;;;;;;4927555;29;20086;-81
2023/09/11 00:41:51;;;;;;;26.52;17.00;;;17.80;99.90;;;;;;4915749;29;20545;-81
2023/09/11 00:44:16;;;;;;;30.98;18.60;;;17.80;99.90;;;;;;4922132;29;20046;-82
2023/09/11 00:46:42;;;;;;;27.63;18.08;;;17.70;99.90;;;;;;4928021;29;20119;-81
2023/09/11 00:49:08;;;;;;;24.70;17.10;;;17.70;99.90;;;;;;4928907;29;20654;-81
2023/09/11 00:51:36;;;;;;;24.05;16.80;;;17.70;99.90;;;;;;4925875;29;20161;-81
2023/09/11 00:54:02;;;;;;;24.77;16.38;;;17.70;99.90;;;;;;4927689;29;20213;-82
2023/09/11 00:56:28;;;;;;;29.75;19.00;;;17.70;99.90;;;;;;4928211;29;20063;-80
2023/09/11 00:58:53;;;;;;;30.00;18.52;;;17.60;99.90;;;;;;4926570;29;20036;-81
2023/09/11 01:01:21;;;;;;;26.95;17.83;;;17.60;99.90;;;;;;4925687;29;20096;-81
2023/09/11 01:03:47;;;;;;;25.38;18.05;;;17.60;99.90;;;;;;4923272;29;20027;-81
2023/09/11 01:06:13;;;;;;;27.38;18.02;;;17.60;99.90;;;;;;4926027;29;20103;-81
2023/09/11 01:08:39;;;;;;;28.40;18.63;;;17.50;99.90;;;;;;4927290;29;20040;-82
2023/09/11 01:11:04;;;;;;;28.60;18.17;;;17.50;99.90;;;;;;4921266;29;20032;-80
2023/09/11 01:13:31;;;;;;;28.30;18.27;;;17.50;99.90;;;;;;4925856;29;20042;-81
2023/09/11 01:16:25;;;;;;;27.77;18.70;;;17.50;99.90;;;;;;4926062;29;20031;-82
2023/09/11 01:19:01;;;;;;;27.73;18.40;;;17.50;99.90;;;;;;4927023;29;20039;-80
2023/09/11 01:21:46;;;;;;;30.52;21.30;;;17.50;99.90;;;;;;4919474;29;20031;-80
2023/09/11 01:24:18;;;;;;;33.58;20.35;;;17.50;99.90;;;;;;4909939;29;20044;-82
2023/09/11 01:27:14;;;;;;;28.80;20.33;;;17.50;99.90;;;;;;4918517;29;20483;-81
2023/09/11 01:29:41;;;;;;;32.00;20.25;;;17.50;99.90;;;;;;4926630;29;20028;-81
2023/09/11 01:32:08;;;;;;;28.65;20.65;;;17.40;99.90;;;;;;4925702;29;20032;-82
2023/09/11 01:34:34;;;;;;;26.27;19.38;;;17.40;99.90;;;;;;4926240;29;20082;-81
2023/09/11 01:36:59;;;;;;;28.63;19.92;;;17.40;99.90;;;;;;4924736;29;20058;-81
2023/09/11 01:39:25;;;;;;;24.45;18.05;;;17.40;99.90;;;;;;4925398;29;20032;-81
2023/09/11 01:41:54;;;;;;;24.98;17.48;;;17.40;99.90;;;;;;4927109;29;20036;-82
2023/09/11 01:44:23;;;;;;;22.95;16.55;;;17.40;99.90;;;;;;4922974;29;20598;-82
2023/09/11 01:46:52;;;;;;;21.10;14.95;;;17.30;99.90;;;;;;4915544;29;20028;-82
2023/09/11 01:49:19;;;;;;;22.60;15.57;;;17.20;99.90;;;;;;4912232;29;20036;-82
2023/09/11 01:51:45;;;;;;;25.42;15.70;;;17.20;99.90;;;;;;4916730;29;20178;-81
2023/09/11 01:54:12;;;;;;;22.60;15.88;;;17.20;99.90;;;;;;4923882;29;20035;-81
2023/09/11 01:56:37;;;;;;;23.40;16.42;;;17.10;99.90;;;;;;4914100;29;20024;-82
2023/09/11 01:59:03;;;;;;;28.08;18.67;;;17.10;99.90;;;;;;4905483;29;20506;-81
2023/09/11 02:01:29;;;;;;;27.80;18.90;;;17.10;99.90;;;;;;4910870;29;20439;-81
2023/09/11 02:03:54;;;;;;;28.02;18.88;;;17.10;99.90;;;;;;4926427;29;20035;-80
2023/09/11 02:06:20;;;;;;;27.88;18.48;;;17.10;99.90;;;;;;4931341;29;20562;-82
2023/09/11 02:08:46;;;;;;;24.73;16.40;;;17.10;99.90;;;;;;4924632;29;20039;-81
2023/09/11 02:11:11;;;;;;;20.95;15.73;;;17.10;99.90;;;;;;4925756;29;20632;-81
2023/09/11 02:13:37;;;;;;;25.63;16.35;;;17.10;99.90;;;;;;4924923;29;20032;-81
2023/09/11 02:16:03;;;;;;;24.23;16.90;;;17.10;99.90;;;;;;4924390;29;20028;-81
2023/09/11 02:18:28;;;;;;;25.00;17.05;;;17.00;99.90;;;;;;4930336;28;20047;-81
2023/09/11 02:20:54;;;;;;;23.30;16.20;;;17.00;99.90;;;;;;4912822;29;20031;-81
2023/09/11 02:23:20;;;;;;;22.98;16.05;;;17.00;99.90;;;;;;4925761;29;20067;-81
2023/09/11 02:25:48;;;;;;;23.25;15.18;;;17.00;99.90;;;;;;4925367;29;20227;-82
2023/09/11 02:28:15;;;;;;;18.50;13.77;;;16.90;99.90;;;;;;4934961;29;20540;-81
2023/09/11 02:30:40;;;;;;;19.42;13.63;;;16.90;99.90;;;;;;4937321;29;20031;-80
2023/09/11 02:33:06;;;;;;;16.23;12.23;;;16.80;99.90;;;;;;4923646;29;20030;-81
2023/09/11 02:35:32;;;;;;;17.40;13.07;;;16.80;99.90;;;;;;4922147;29;20622;-81
2023/09/11 02:37:58;;;;;;;17.02;12.57;;;16.80;99.90;;;;;;4923977;29;20054;-81
2023/09/11 02:40:24;;;;;;;15.73;10.80;;;16.70;99.90;;;;;;4924414;29;20031;-81
2023/09/11 02:42:49;;;;;;;16.23;10.68;;;16.60;99.90;;;;;;4924858;29;20040;-80
2023/09/11 02:45:15;;;;;;;14.48;11.05;;;16.60;99.90;;;;;;4925379;29;20031;-81
2023/09/11 02:47:40;;;;;;;13.35;10.90;;;16.50;99.90;;;;;;4923184;29;20038;-81
2023/09/11 02:50:07;;;;;;;15.07;10.75;;;16.50;99.90;;;;;;4924812;29;20063;-81
2023/09/11 02:52:33;;;;;;;13.75;10.95;;;16.40;99.90;;;;;;4926274;29;20115;-80
2023/09/11 02:54:59;;;;;;;12.77;10.35;;;16.30;99.90;;;;;;4914173;29;20131;-82
2023/09/11 02:57:24;;;;;;;12.10;10.63;;;16.30;99.90;;;;;;4926713;29;20139;-81
2023/09/11 02:59:54;;;;;;;12.93;10.30;;;16.20;99.90;;;;;;4927054;29;20036;-81
2023/09/11 03:02:23;;;;;;;12.18;10.25;;;16.20;99.90;;;;;;4929225;29;20090;-82
2023/09/11 03:04:51;;;;;;;15.10;10.80;;;16.10;99.90;;;;;;4928854;29;20024;-81
2023/09/11 03:07:20;;;;;;;13.43;10.40;;;16.10;99.90;;;;;;4916711;29;20031;-81
2023/09/11 03:09:46;;;;;;;13.80;10.30;;;16.10;99.90;;;;;;4929829;29;20036;-81
2023/09/11 03:12:12;;;;;;;12.98;10.50;;;16.10;99.90;;;;;;4930546;29;20106;-80
2023/09/11 03:14:40;;;;;;;14.13;10.82;;;16.10;99.90;;;;;;4942667;29;20027;-81
2023/09/11 03:17:05;;;;;;;17.02;12.60;;;16.20;99.90;;;;;;4928617;28;20043;-81
2023/09/11 03:19:35;;;;;;;18.63;13.73;;;16.30;99.90;;;;;;4929162;29;20366;-81
2023/09/11 03:22:00;;;;;;;22.08;14.50;;;16.40;99.90;;;;;;4931100;29;20036;-82
2023/09/11 03:24:26;;;;;;;24.80;16.42;;;16.50;99.90;;;;;;4929607;29;20556;-81
2023/09/11 03:26:51;;;;;;;24.85;15.73;;;16.60;99.90;;;;;;4929509;29;20503;-81
2023/09/11 03:29:17;;;;;;;24.25;16.58;;;16.70;99.90;;;;;;4929860;29;20066;-80
2023/09/11 03:31:43;;;;;;;29.13;18.55;;;16.80;99.90;;;;;;4922298;29;20035;-82
2023/09/11 03:34:09;;;;;;;31.85;19.23;;;16.90;99.90;;;;;;4923845;29;20130;-81
2023/09/11 03:39:32;;;;;;;23.38;15.45;;;17.20;99.90;;;;;;4928388;29;20059;-81
2023/09/11 03:41:58;;;;;;;20.77;12.85;;;17.20;99.90;;;;;;4928189;29;20024;-82
2023/09/11 03:44:23;;;;;;;18.70;12.65;;;17.30;99.90;;;;;;4928652;29;20035;-81
2023/09/11 03:46:49;;;;;;;18.30;12.90;;;17.30;99.90;;;;;;4929214;29;20023;-81
2023/09/11 03:49:14;;;;;;;21.00;13.18;;;17.30;99.90;;;;;;4927398;29;20091;-82
2023/09/11 03:51:40;;;;;;;18.50;13.00;;;17.40;99.90;;;;;;4943016;29;20023;-81
2023/09/11 03:54:10;;;;;;;21.30;13.10;;;17.40;99.90;;;;;;4928835;29;20397;-81
2023/09/11 03:56:35;;;;;;;16.90;12.82;;;17.40;99.90;;;;;;4928796;29;20052;-82
2023/09/11 03:59:01;;;;;;;19.67;14.25;;;17.40;99.90;;;;;;4932111;29;20031;-81
2023/09/11 04:01:26;;;;;;;21.13;14.55;;;17.40;99.90;;;;;;4908298;29;20413;-81
2023/09/11 04:03:52;;;;;;;25.92;16.50;;;17.50;99.90;;;;;;4925735;29;20039;-79
2023/09/11 04:06:19;;;;;;;26.88;18.00;;;17.50;99.90;;;;;;4926314;29;20059;-81
2023/09/11 04:08:45;;;;;;;29.08;19.75;;;17.50;99.90;;;;;;4927352;29;20031;-81
2023/09/11 04:11:10;;;;;;;27.95;18.63;;;17.60;99.90;;;;;;4919371;29;20478;-81
2023/09/11 04:13:36;;;;;;;27.48;18.48;;;17.60;99.90;;;;;;4922145;29;20442;-81
2023/09/11 04:16:01;;;;;;;28.85;17.60;;;17.60;99.90;;;;;;4926762;29;20122;-81
2023/09/11 04:18:27;;;;;;;28.15;18.17;;;17.70;99.90;;;;;;4925858;29;20105;-81
2023/09/11 04:21:03;;;;;;;32.22;18.63;;;17.70;99.90;;;;;;4927938;29;20533;-81
2023/09/11 04:23:29;;;;;;;28.27;18.08;;;17.80;99.90;;;;;;4915987;29;20072;-82
2023/09/11 04:25:56;;;;;;;28.63;18.77;;;17.80;99.90;;;;;;4921913;29;20082;-82
2023/09/11 04:28:21;;;;;;;29.00;18.17;;;17.90;99.90;;;;;;4928394;29;20028;-82
2023/09/11 04:30:47;;;;;;;27.80;18.45;;;17.90;99.90;;;;;;4922214;29;20517;-82
2023/09/11 04:33:13;;;;;;;26.58;17.58;;;18.00;99.90;;;;;;4925816;29;20476;-81
2023/09/11 04:35:38;;;;;;;30.20;17.65;;;18.00;99.90;;;;;;4927174;29;20111;-82
2023/09/11 04:38:04;;;;;;;30.33;18.83;;;18.00;99.90;;;;;;4923284;29;20041;-82
2023/09/11 04:40:29;;;;;;;30.88;17.85;;;18.00;99.90;;;;;;4927461;29;20496;-82
2023/09/11 04:42:55;;;;;;;26.45;17.23;;;18.00;99.90;;;;;;4925763;29;20051;-82
2023/09/11 04:45:21;;;;;;;26.15;16.75;;;18.00;99.90;;;;;;4921652;29;20472;-82
2023/09/11 04:47:46;;;;;;;26.45;17.13;;;18.00;99.90;;;;;;4922010;29;20035;-82
2023/09/11 04:50:12;;;;;;;26.75;15.77;;;18.00;99.90;;;;;;4925710;29;20063;-81
2023/09/11 04:52:37;;;;;;;25.35;16.65;;;18.10;99.90;;;;;;4926267;29;20036;-82
2023/09/11 04:55:03;;;;;;;26.02;16.38;;;18.10;99.90;;;;;;4926881;29;20031;-82
2023/09/11 04:57:29;;;;;;;27.92;15.98;;;18.10;99.90;;;;;;4926652;29;20150;-81
2023/09/11 04:59:54;;;;;;;26.80;15.50;;;18.10;99.90;;;;;;4924868;29;20046;-81
2023/09/11 05:02:20;;;;;;;24.52;15.82;;;18.10;99.90;;;;;;4923510;29;20059;-82
2023/09/11 05:04:47;;;;;;;21.17;14.82;;;18.10;99.90;;;;;;4924646;29;20118;-81
2023/09/11 05:07:12;;;;;;;22.77;14.93;;;18.20;99.90;;;;;;4938345;29;20086;-81
2023/09/11 05:09:39;;;;;;;22.50;14.85;;;18.20;99.90;;;;;;4926320;29;20028;-81
2023/09/11 05:12:05;;;;;;;23.98;14.68;;;18.10;99.90;;;;;;4926587;29;20172;-80
2023/09/11 05:14:30;;;;;;;19.23;14.07;;;18.10;99.90;;;;;;4921016;29;20035;-81
2023/09/11 05:16:56;;;;;;;20.45;12.90;;;18.10;99.90;;;;;;4907243;29;20576;-80
2023/09/11 05:19:21;;;;;;;23.38;13.60;;;18.10;99.90;;;;;;4924043;29;20039;-81
2023/09/11 05:21:47;;;;;;;21.92;13.38;;;18.10;99.90;;;;;;4917707;29;20059;-79
2023/09/11 05:24:13;;;;;;;21.88;13.40;;;18.20;99.90;;;;;;4924902;29;20114;-81
2023/09/11 05:26:38;;;;;;;18.65;13.18;;;18.30;99.90;;;;;;4922595;29;20032;-80
2023/09/11 05:29:04;;;;;;;20.85;13.43;;;18.20;99.90;;;;;;4912806;29;20120;-81
2023/09/11 05:31:30;;;;;;;20.15;13.70;;;18.30;99.90;;;;;;4922632;29;20027;-80
2023/09/11 05:33:55;;;;;;;18.10;13.18;;;18.30;99.90;;;;;;4918109;29;20058;-80
2023/09/11 05:36:21;;;;;;;18.10;12.27;;;18.30;99.90;;;;;;4923111;29;20035;-81
2023/09/11 05:38:49;;;;;;;20.17;12.77;;;18.20;99.90;;;;;;4911529;29;20047;-82
2023/09/11 05:41:15;;;;;;;19.42;12.73;;;18.20;99.90;;;;;;4923805;29;20603;-81
2023/09/11 05:43:41;;;;;;;16.75;11.40;;;18.20;99.90;;;;;;4924362;29;20100;-80
2023/09/11 05:46:07;;;;;;;19.75;12.45;;;18.20;99.90;;;;;;4925283;29;20039;-81
2023/09/11 05:48:33;;;;;;;18.70;12.02;;;18.20;99.90;;;;;;4921341;29;20114;-80
2023/09/11 05:50:58;;;;;;;19.80;11.80;;;18.30;99.90;;;;;;4923524;29;20460;-81
2023/09/11 05:53:24;;;;;;;17.08;10.80;;;18.30;99.90;;;;;;4923085;29;20048;-81
2023/09/11 05:55:49;;;;;;;18.38;11.75;;;18.30;99.90;;;;;;4921079;29;20059;-82
2023/09/11 05:58:15;;;;;;;17.95;11.68;;;18.30;99.90;;;;;;4925205;29;20174;-80
2023/09/11 06:00:42;;;;;;;17.23;11.73;;;18.40;99.90;;;;;;4912474;29;20040;-80
2023/09/11 06:03:07;;;;;;;18.05;11.38;;;18.40;99.90;;;;;;4918195;29;20036;-80
2023/09/11 06:05:36;;;;;;;20.52;11.63;;;18.40;99.90;;;;;;4925078;29;20086;-81
2023/09/11 06:08:03;;;;;;;648.03;457.05;;;18.40;99.90;;;;;;4926742;29;20028;-81
2023/09/11 06:10:29;;;;;;;214.27;119.15;;;18.40;99.90;;;;;;4922484;29;20024;-82
2023/09/11 06:12:55;;;;;;;19.55;13.77;;;18.50;99.90;;;;;;4925953;29;20477;-83
2023/09/11 06:15:20;;;;;;;17.25;11.18;;;18.60;99.90;;;;;;4922468;29;20057;-82
2023/09/11 06:17:46;;;;;;;15.30;10.45;;;18.60;99.90;;;;;;4919922;29;20432;-81
2023/09/11 06:20:13;;;;;;;16.23;11.95;;;18.70;99.90;;;;;;4925127;29;20549;-83
2023/09/11 06:22:39;;;;;;;13.93;9.90;;;18.90;99.90;;;;;;4925145;29;20028;-82
2023/09/11 06:25:05;;;;;;;19.00;11.00;;;19.00;99.90;;;;;;4922476;29;20134;-82
2023/09/11 06:27:31;;;;;;;84.40;55.88;;;19.10;99.90;;;;;;4925885;29;20142;-81
2023/09/11 06:29:56;;;;;;;40.05;28.10;;;19.10;99.90;;;;;;4926403;29;20516;-85
2023/09/11 06:32:22;;;;;;;18.33;12.10;;;19.20;99.90;;;;;;4929357;29;20036;-88
2023/09/11 06:34:48;;;;;;;17.92;10.18;;;19.40;99.90;;;;;;4929637;29;20031;-89
2023/09/11 06:37:14;;;;;;;18.75;11.25;;;19.50;99.90;;;;;;4925747;29;20405;-90
2023/09/11 06:39:39;;;;;;;17.13;11.45;;;19.60;99.90;;;;;;4928728;29;20032;-89
2023/09/11 06:42:05;;;;;;;15.07;10.32;;;19.70;99.90;;;;;;4926587;29;20402;-89
2023/09/11 06:44:31;;;;;;;16.67;13.30;;;19.80;99.90;;;;;;4929748;29;20585;-89
2023/09/11 06:46:57;;;;;;;15.98;11.23;;;19.90;99.90;;;;;;4927060;29;20473;-90
2023/09/11 06:49:22;;;;;;;14.20;9.82;;;20.00;99.90;;;;;;4929168;29;20035;-90
2023/09/11 06:51:48;;;;;;;13.82;9.65;;;20.10;99.90;;;;;;4914328;29;20036;-89
2023/09/11 06:54:13;;;;;;;13.27;9.70;;;20.30;99.90;;;;;;4928947;29;20131;-89
2023/09/11 06:56:43;;;;;;;12.75;10.30;;;20.40;99.90;;;;;;4927958;29;20127;-91
2023/09/11 06:59:08;;;;;;;15.82;10.35;;;20.50;99.90;;;;;;4926794;29;20561;-90
2023/09/11 07:01:39;;;;;;;18.42;10.60;;;20.60;99.90;;;;;;4637837;29;10000605;-92
2023/09/11 07:04:10;;;;;;;15.95;10.68;;;20.70;99.90;;;;;;4918296;29;20278;-89
2023/09/11 07:06:36;;;;;;;;;;;20.80;99.90;;;;;;4924235;29;20628;-89
2023/09/11 07:09:04;;;;;;;15.70;10.07;;;20.90;99.90;;;;;;4941426;29;20267;-89
2023/09/11 07:11:29;;;;;;;17.77;11.38;;;21.00;99.90;;;;;;4926265;29;20032;-88
2023/09/11 07:13:55;;;;;;;19.35;11.65;;;21.10;99.90;;;;;;4927179;29;20081;-88
2023/09/11 07:16:21;;;;;;;17.73;10.38;;;21.30;99.90;;;;;;4926180;29;20074;-88
2023/09/11 07:18:48;;;;;;;17.90;11.40;;;21.40;99.90;;;;;;4921115;29;20092;-89
2023/09/11 07:21:13;;;;;;;17.10;10.55;;;21.60;99.90;;;;;;4923538;29;20752;-89
2023/09/11 07:23:39;;;;;;;16.52;10.73;;;21.80;99.90;;;;;;4926229;29;20043;-89
2023/09/11 07:26:04;;;;;;;15.73;11.05;;;22.00;99.90;;;;;;4919292;29;20481;-83
2023/09/11 07:28:32;;;;;;;18.08;11.15;;;22.20;99.90;;;;;;4915966;29;20936;-82
2023/09/11 07:30:58;;;;;;;19.42;11.73;;;22.50;99.90;;;;;;4912492;29;20028;-82
2023/09/11 07:33:24;;;;;;;16.95;12.35;;;22.70;99.90;;;;;;4913815;29;20640;-82
2023/09/11 07:35:50;;;;;;;18.35;11.70;;;22.90;99.90;;;;;;4909313;29;20027;-82
2023/09/11 07:38:16;;;;;;;18.27;10.40;;;23.20;99.90;;;;;;4920621;29;20557;-82
2023/09/11 07:40:42;;;;;;;17.05;11.55;;;23.50;99.90;;;;;;4922251;29;20024;-81
2023/09/11 07:43:11;;;;;;;17.98;11.65;;;23.70;99.90;;;;;;4925920;29;20114;-82
2023/09/11 07:45:36;;;;;;;19.15;12.13;;;24.30;99.90;;;;;;4926444;29;20611;-82
2023/09/11 07:48:02;;;;;;;17.75;11.32;;;25.20;99.90;;;;;;4913615;29;20035;-82
2023/09/11 07:50:28;;;;;;;21.92;11.88;;;25.90;99.90;;;;;;4922312;29;20063;-82
2023/09/11 07:52:53;;;;;;;16.90;11.32;;;26.20;99.90;;;;;;4928664;29;20083;-82
2023/09/11 07:55:19;;;;;;;19.90;13.32;;;28.10;99.90;;;;;;4923684;29;20413;-82
2023/09/11 07:57:45;;;;;;;18.83;11.73;;;29.50;99.90;;;;;;4927498;29;20048;-84
2023/09/11 08:00:11;;;;;;;16.52;11.18;;;31.10;97.30;;;;;;4918987;29;20604;-84
2023/09/11 08:02:36;;;;;;;12.95;10.48;;;32.50;91.80;;;;;;4927568;29;20047;-82
2023/09/11 08:05:02;;;;;;;11.00;8.75;;;33.30;90.50;;;;;;4924944;29;20047;-81
2023/09/11 08:07:28;;;;;;;11.88;8.45;;;34.00;84.80;;;;;;4923439;29;20387;-81
2023/09/11 08:09:53;;;;;;;11.60;8.85;;;34.50;79.10;;;;;;4922180;29;20031;-81
2023/09/11 08:12:19;;;;;;;10.85;8.13;;;35.20;77.90;;;;;;4922430;29;20039;-81
2023/09/11 08:14:45;;;;;;;9.38;7.20;;;35.70;71.30;;;;;;4925112;29;20035;-82
2023/09/11 08:17:11;;;;;;;12.73;7.72;;;35.60;71.00;;;;;;4927402;29;20051;-81
2023/09/11 08:19:37;;;;;;;11.20;8.00;;;35.10;67.80;;;;;;4935502;29;20062;-89
2023/09/11 08:22:03;;;;;;;9.32;6.78;;;35.00;66.30;;;;;;4907733;29;20115;-81
2023/09/11 08:24:29;;;;;;;10.23;6.55;;;35.40;68.30;;;;;;4922431;29;20114;-79
2023/09/11 08:26:55;;;;;;;8.20;5.55;;;35.60;66.50;;;;;;4922540;29;20075;-79
2023/09/11 08:29:21;;;;;;;10.38;6.63;;;36.00;60.70;;;;;;4921436;29;20042;-81
2023/09/11 08:31:47;;;;;;;7.57;5.70;;;36.00;61.30;;;;;;4922315;29;20032;-81
2023/09/11 08:34:13;;;;;;;9.93;5.78;;;35.80;61.90;;;;;;4924725;29;20082;-82
2023/09/11 08:36:39;;;;;;;10.82;6.53;;;35.20;63.60;;;;;;4926730;29;20031;-80
2023/09/11 08:39:04;;;;;;;8.70;6.32;;;34.10;63.10;;;;;;4940868;29;20170;-81
2023/09/11 08:41:31;;;;;;;10.77;6.80;;;32.90;67.30;;;;;;4923444;29;20039;-81
2023/09/11 08:43:57;;;;;;;15.10;6.90;;;31.80;70.10;;;;;;4925395;29;20098;-81
2023/09/11 08:46:23;;;;;;;8.48;6.80;;;30.70;72.40;;;;;;4926279;29;20036;-80
2023/09/11 08:48:54;;;;;;;11.60;7.15;;;29.70;79.80;;;;;;4927464;29;20043;-80
2023/09/11 08:51:47;;;;;;;9.63;6.30;;;30.40;87.60;;;;;;4921398;29;20518;-81
2023/09/11 08:54:16;;;;;;;8.43;6.43;;;31.90;83.80;;;;;;4925262;29;20107;-78
2023/09/11 08:56:43;;;;;;;8.50;6.70;;;32.80;69.90;;;;;;4925134;29;20036;-81
2023/09/11 08:59:11;;;;;;;9.30;6.80;;;32.70;70.50;;;;;;4927298;29;20489;-82
2023/09/11 09:01:38;;;;;;;9.75;7.20;;;31.80;71.60;;;;;;4924903;29;20142;-81
2023/09/11 09:04:06;;;;;;;10.98;7.32;;;31.00;76.10;;;;;;4926784;29;20070;-81
2023/09/11 09:06:33;;;;;;;10.63;6.90;;;30.40;76.60;;;;;;4925876;29;20027;-80
2023/09/11 09:08:59;;;;;;;11.95;7.55;;;29.80;81.60;;;;;;4927092;29;20373;-81
2023/09/11 09:11:26;;;;;;;9.23;7.13;;;29.00;80.70;;;;;;4925036;29;20040;-81
2023/09/11 09:13:52;;;;;;;10.38;6.72;;;28.40;88.80;;;;;;4927181;29;20059;-82
2023/09/11 09:16:17;;;;;;;9.70;6.88;;;28.00;92.40;;;;;;4927827;29;20031;-81
2023/09/11 09:18:50;;;;;;;11.15;6.70;;;28.20;95.30;;;;;;4926810;29;20040;-81
2023/09/11 09:21:25;;;;;;;8.77;5.78;;;29.80;94.90;;;;;;4568983;29;10000522;-81
2023/09/11 09:23:52;;;;;;;9.48;6.10;;;30.90;86.30;;;;;;4913383;29;20031;-80
2023/09/11 09:26:18;;;;;;;9.85;5.32;;;32.00;87.90;;;;;;4925095;29;20032;-82
2023/09/11 09:28:45;;;;;;;7.13;4.47;;;33.80;80.40;;;;;;4923750;29;20090;-83
2023/09/11 09:31:15;;;;;;;6.68;4.55;;;35.70;73.40;;;;;;4927929;29;20024;-83
2023/09/11 09:33:41;;;;;;;5.63;3.90;;;37.40;63.90;;;;;;4925397;29;21859;-82
2023/09/11 09:36:07;;;;;;;5.03;3.22;;;39.20;56.60;;;;;;4938647;29;20035;-83
2023/09/11 09:38:33;;;;;;;5.70;3.35;;;40.40;53.80;;;;;;4922467;29;20486;-83
2023/09/11 09:41:09;;;;;;;4.72;2.83;;;40.90;49.30;;;;;;4923680;29;20035;-81
2023/09/11 09:43:35;;;;;;;4.88;3.03;;;41.40;48.10;;;;;;4919058;29;20043;-80
2023/09/11 09:46:17;;;;;;;5.25;2.75;;;41.80;45.40;;;;;;4927500;29;20032;-82
2023/09/11 09:48:43;;;;;;;5.35;2.67;;;41.60;45.60;;;;;;4925098;29;20643;-79
2023/09/11 09:51:08;;;;;;;3.83;2.67;;;41.50;47.20;;;;;;4926748;29;20094;-83
2023/09/11 09:53:41;;;;;;;4.55;2.25;;;40.70;47.20;;;;;;4927202;29;20114;-82
2023/09/11 09:56:09;;;;;;;2.58;1.50;;;39.10;46.90;;;;;;4927976;29;20039;-80
2023/09/11 09:58:40;;;;;;;5.72;2.00;;;37.80;48.30;;;;;;4927784;29;20054;-82
2023/09/11 10:01:09;;;;;;;2.40;1.30;;;37.60;50.40;;;;;;4925289;28;20118;-82
2023/09/11 10:03:42;;;;;;;2.17;1.48;;;38.20;48.10;;;;;;4926568;29;20900;-82
2023/09/11 10:06:09;;;;;;;3.28;1.55;;;38.90;49.60;;;;;;4918692;29;20038;-81
2023/09/11 10:08:35;;;;;;;3.85;1.50;;;39.70;48.30;;;;;;4908911;29;20111;-82
2023/09/11 10:11:01;;;;;;;2.00;1.33;;;39.70;45.20;;;;;;4925749;29;20035;-82
2023/09/11 10:13:30;;;;;;;2.85;1.30;;;40.10;48.60;;;;;;4921019;29;20028;-81
2023/09/11 10:15:56;;;;;;;4.20;1.60;;;40.60;46.90;;;;;;4908362;29;20672;-83
2023/09/11 10:18:23;;;;;;;2.67;1.20;;;41.60;44.10;;;;;;4908690;29;20205;-82
2023/09/11 10:20:50;;;;;;;3.03;1.40;;;41.90;43.30;;;;;;4914219;29;20028;-82
2023/09/11 10:23:15;;;;;;;3.72;1.35;;;41.10;43.80;;;;;;4908676;29;20043;-82
2023/09/11 10:25:45;;;;;;;2.25;1.20;;;41.10;46.10;;;;;;4922207;29;20496;-81
2023/09/11 10:28:30;;;;;;;1.85;1.25;;;41.80;43.00;;;;;;4927669;29;20047;-79
2023/09/11 10:31:25;;;;;;;5.40;1.30;;;42.20;43.00;;;;;;4926298;29;20024;-81
2023/09/11 10:33:55;;;;;;;3.17;1.33;;;42.60;42.70;;;;;;4926856;29;20074;-79
2023/09/11 10:36:32;;;;;;;2.65;1.35;;;43.00;43.50;;;;;;4920441;29;20031;-82
2023/09/11 10:38:59;;;;;;;2.42;1.20;;;43.40;40.20;;;;;;4924470;29;20134;-78
2023/09/11 10:41:26;;;;;;;2.13;1.20;;;43.70;39.60;;;;;;4925601;29;20038;-78
2023/09/11 10:43:51;;;;;;;3.15;1.20;;;44.00;40.10;;;;;;4923488;29;20036;-81
2023/09/11 10:46:31;;;;;;;4.03;1.30;;;43.90;40.90;;;;;;4924401;29;20032;-78
2023/09/11 10:48:59;;;;;;;1.80;0.90;;;44.00;38.80;;;;;;4924119;29;20035;-80
2023/09/11 10:51:28;;;;;;;3.90;1.40;;;44.30;40.30;;;;;;4923800;29;20031;-81
2023/09/11 10:53:54;;;;;;;1.73;1.00;;;44.40;37.80;;;;;;4923230;29;20031;-77
2023/09/11 10:56:19;;;;;;;2.30;1.10;;;44.60;37.90;;;;;;4925219;29;20032;-80
2023/09/11 10:58:45;;;;;;;2.38;1.10;;;44.90;36.90;;;;;;4922273;29;20150;-81
2023/09/11 11:01:14;;;;;;;1.55;1.00;;;44.70;38.60;;;;;;4923731;29;20806;-82
2023/09/11 11:03:41;;;;;;;3.20;0.90;;;44.90;37.20;;;;;;4925131;29;20032;-81
2023/09/11 11:06:12;;;;;;;2.00;1.13;;;45.30;35.40;;;;;;4926496;29;20500;-81
2023/09/11 11:08:39;;;;;;;3.15;1.25;;;45.00;35.80;;;;;;4925470;29;20046;-81
2023/09/11 11:11:24;;;;;;;2.92;1.10;;;44.50;36.10;;;;;;4922426;29;20027;-81
2023/09/11 11:14:17;;;;;;;2.17;1.10;;;44.10;38.90;;;;;;4937898;28;20450;-81
2023/09/11 11:17:12;;;;;;;2.40;1.20;;;44.60;39.70;;;;;;4922659;29;20023;-79
2023/09/11 11:20:17;;;;;;;2.47;1.20;;;44.50;38.80;;;;;;4927073;29;20569;-79
2023/09/11 11:22:43;;;;;;;3.60;0.82;;;43.90;37.30;;;;;;4888455;29;20108;-81
2023/09/11 11:25:17;;;;;;;2.63;1.20;;;42.40;40.30;;;;;;4153869;29;10001928;-79
2023/09/11 11:27:45;;;;;;;2.17;1.00;;;41.00;42.60;;;;;;4927287;29;20028;-80
2023/09/11 11:30:11;;;;;;;3.33;1.23;;;39.40;44.40;;;;;;4923914;29;20028;-80
2023/09/11 11:32:40;;;;;;;3.28;1.20;;;38.10;45.50;;;;;;4926098;29;22044;-80
2023/09/11 11:35:09;;;;;;;3.50;1.17;;;36.80;48.30;;;;;;4931498;29;20116;-82
2023/09/11 11:37:38;;;;;;;2.95;1.20;;;35.60;48.30;;;;;;4924514;29;20099;-81
2023/09/11 11:40:08;;;;;;;3.25;1.10;;;34.50;51.60;;;;;;4922893;29;20139;-82
2023/09/11 11:42:36;;;;;;;2.95;1.20;;;34.00;49.80;;;;;;4930155;29;20031;-82
2023/09/11 11:45:02;;;;;;;4.25;1.23;;;33.70;53.90;;;;;;4926035;29;20339;-78
2023/09/11 11:47:31;;;;;;;4.10;1.35;;;33.80;52.90;;;;;;4928715;29;20466;-80
2023/09/11 11:50:05;;;;;;;2.38;1.10;;;33.60;51.70;;;;;;4927132;29;20031;-81
2023/09/11 11:52:31;;;;;;;1.92;0.95;;;33.30;55.10;;;;;;4930503;29;20880;-79
2023/09/11 11:54:56;;;;;;;2.05;1.20;;;32.80;52.50;;;;;;4926075;29;20031;-77
2023/09/11 11:57:23;;;;;;;3.65;1.40;;;31.90;54.40;;;;;;4920129;29;20158;-81
2023/09/11 11:59:51;;;;;;;2.00;1.30;;;31.30;57.50;;;;;;4926000;29;20122;-83
2023/09/11 12:02:21;;;;;;;2.42;1.23;;;30.80;57.80;;;;;;4927773;29;20046;-81
2023/09/11 12:04:46;;;;;;;3.57;1.40;;;30.70;62.00;;;;;;4929733;29;20123;-81
2023/09/11 12:07:12;;;;;;;3.55;1.67;;;31.00;60.80;;;;;;4924975;29;20381;-81
2023/09/11 12:09:41;;;;;;;3.90;2.00;;;31.20;62.30;;;;;;4925939;29;20036;-81
2023/09/11 12:12:07;;;;;;;3.38;2.20;;;31.10;61.70;;;;;;4926247;29;20032;-81
2023/09/11 12:14:36;;;;;;;4.18;2.38;;;31.10;65.80;;;;;;4926750;29;20122;-78
2023/09/11 12:17:02;;;;;;;4.80;3.03;;;30.80;63.30;;;;;;4925900;29;20397;-81
2023/09/11 12:19:27;;;;;;;8.43;3.10;;;30.60;66.10;;;;;;4924621;29;20035;-80
2023/09/11 12:21:56;;;;;;;4.40;2.92;;;30.50;70.90;;;;;;4923292;29;20047;-81
2023/09/11 12:24:22;;;;;;;3.67;2.72;;;30.40;69.90;;;;;;4923213;29;20032;-79
2023/09/11 12:26:48;;;;;;;4.80;2.60;;;30.30;70.40;;;;;;4926439;29;20577;-81
2023/09/11 12:29:14;;;;;;;6.70;3.05;;;29.80;71.40;;;;;;4928211;29;20512;-83
2023/09/11 12:31:40;;;;;;;5.70;3.15;;;29.70;72.30;;;;;;4925446;29;20115;-81
2023/09/11 12:34:05;;;;;;;5.00;2.97;;;29.80;79.00;;;;;;4931608;29;20517;-81
2023/09/11 12:36:31;;;;;;;5.32;2.80;;;29.80;76.50;;;;;;4928158;29;20047;-81